createdAt,value
2022-11-23T00:00:45.839Z,7.74
2022-11-23T00:05:50.149Z,7.76
2022-11-23T00:10:53.068Z,7.72
2022-11-23T00:15:56.245Z,7.72
2022-11-23T00:21:00.597Z,7.72
2022-11-23T00:26:03.901Z,7.64
2022-11-23T00:31:07.415Z,7.51
2022-11-23T00:36:13.925Z,7.42
2022-11-23T00:41:19.229Z,7.34
2022-11-23T00:46:24.863Z,7.29
2022-11-23T00:51:31.332Z,7.22
2022-11-23T00:56:36.108Z,7.22
2022-11-23T01:01:39.367Z,7.25
2022-11-23T01:06:44.032Z,7.27
2022-11-23T01:11:47.303Z,7.22
2022-11-23T01:16:50.871Z,7.20
2022-11-23T01:21:55.272Z,7.16
2022-11-23T01:27:00.960Z,7.10
2022-11-23T01:32:04.787Z,7.01
2022-11-23T01:37:09.156Z,6.96
2022-11-23T01:42:17.574Z,6.90
2022-11-23T01:47:21.135Z,6.89
2022-11-23T01:52:27.872Z,6.98
2022-11-23T01:57:37.054Z,6.96
2022-11-23T02:02:45.078Z,6.86
2022-11-23T02:07:51.127Z,6.77
2022-11-23T02:12:54.854Z,6.68
2022-11-23T02:17:59.661Z,6.63
2022-11-23T02:23:18.104Z,6.64
2022-11-23T02:28:26.144Z,6.67
2022-11-23T02:33:29.197Z,6.77
2022-11-23T02:38:34.357Z,6.86
2022-11-23T02:43:38.999Z,6.96
2022-11-23T02:48:41.944Z,7.04
2022-11-23T02:53:47.402Z,7.11
2022-11-23T02:58:51.959Z,7.20
2022-11-23T03:03:55.122Z,7.22
2022-11-23T03:08:58.221Z,7.19
2022-11-23T03:14:03.311Z,7.08
2022-11-23T03:19:10.202Z,7.15
2022-11-23T03:24:14.477Z,7.21
2022-11-23T03:29:19.477Z,7.22
2022-11-23T03:34:23.620Z,7.19
2022-11-23T03:39:27.361Z,7.24
2022-11-23T03:44:51.850Z,7.25
2022-11-23T03:49:55.244Z,7.23
2022-11-23T03:54:58.270Z,7.25
2022-11-23T04:00:02.875Z,7.28
2022-11-23T04:05:17.184Z,7.28
2022-11-23T04:10:40.347Z,7.36
2022-11-23T04:15:52.572Z,7.40
2022-11-23T04:20:55.600Z,7.45
2022-11-23T04:25:58.626Z,7.47
2022-11-23T04:31:03.035Z,7.52
2022-11-23T04:36:18.675Z,7.56
2022-11-23T04:41:22.249Z,7.58
2022-11-23T04:46:26.990Z,7.59
2022-11-23T04:51:30.515Z,7.61
2022-11-23T04:56:33.868Z,7.61
2022-11-23T05:01:38.562Z,7.60
2022-11-23T05:07:00.538Z,7.64
2022-11-23T05:12:05.468Z,7.56
2022-11-23T05:17:10.886Z,7.51
2022-11-23T05:22:18.503Z,7.53
2022-11-23T05:27:21.732Z,7.52
2022-11-23T05:32:26.135Z,7.53
2022-11-23T05:37:29.432Z,7.52
2022-11-23T05:42:37.064Z,7.52
2022-11-23T05:47:52.630Z,7.52
2022-11-23T05:53:03.148Z,7.54
2022-11-23T05:58:06.866Z,7.53
2022-11-23T06:03:12.972Z,7.46
2022-11-23T06:08:18.610Z,7.44
2022-11-23T06:13:23.589Z,7.28
2022-11-23T06:18:28.172Z,7.09
2022-11-23T06:23:31.364Z,6.93
2022-11-23T06:28:37.070Z,6.83
2022-11-23T06:33:41.569Z,6.73
2022-11-23T06:38:46.166Z,6.62
2022-11-23T06:43:53.338Z,6.59
2022-11-23T06:49:09.966Z,6.54
2022-11-23T06:54:14.125Z,6.55
2022-11-23T06:59:17.620Z,6.53
2022-11-23T07:04:22.185Z,6.57
2022-11-23T07:09:27.697Z,6.59
2022-11-23T07:14:50.926Z,6.73
2022-11-23T07:19:55.347Z,6.70
2022-11-23T07:24:58.424Z,6.68
2022-11-23T07:30:01.469Z,6.79
2022-11-23T07:35:06.789Z,6.92
2022-11-23T07:40:16.093Z,6.92
2022-11-23T07:45:20.508Z,6.97
2022-11-23T07:50:31.823Z,7.10
2022-11-23T07:55:35.343Z,7.20
2022-11-23T08:00:38.845Z,7.30
2022-11-23T08:05:43.485Z,7.30
2022-11-23T08:10:53.254Z,7.30
2022-11-23T08:15:58.195Z,7.33
2022-11-23T08:21:02.946Z,7.33
2022-11-23T08:26:13.176Z,7.41
2022-11-23T08:31:16.807Z,7.58
2022-11-23T08:36:21.343Z,7.60
2022-11-23T08:41:24.282Z,7.73
2022-11-23T08:46:27.413Z,8.02
2022-11-23T08:51:32.181Z,8.21
2022-11-23T08:56:35.226Z,8.22
2022-11-23T09:01:38.428Z,8.19
2022-11-23T09:06:42.851Z,8.26
2022-11-23T09:11:46.106Z,8.30
2022-11-23T09:16:49.342Z,8.42
2022-11-23T09:21:54.132Z,8.52
2022-11-23T09:26:58.479Z,8.63
2022-11-23T09:32:03.287Z,8.76
2022-11-23T09:37:07.628Z,8.85
2022-11-23T09:42:42.907Z,8.99
2022-11-23T09:48:12.902Z,9.08
2022-11-23T09:53:23.655Z,9.19
2022-11-23T09:58:32.384Z,9.31
2022-11-23T10:03:40.593Z,9.42
2022-11-23T10:08:56.661Z,9.56
2022-11-23T10:14:08.997Z,9.73
2022-11-23T10:19:22.798Z,9.69
2022-11-23T10:24:34.666Z,9.63
2022-11-23T10:29:39.721Z,9.53
2022-11-23T10:34:53.585Z,9.55
2022-11-23T10:39:58.262Z,9.60
2022-11-23T10:45:02.464Z,9.62
2022-11-23T10:50:22.089Z,9.65
2022-11-23T10:55:30.891Z,9.62
2022-11-23T11:00:33.955Z,9.66
2022-11-23T11:06:07.533Z,9.69
2022-11-23T11:11:07.354Z,9.73
2022-11-23T11:16:21.433Z,9.73
2022-11-23T11:21:29.119Z,9.65
2022-11-23T11:26:36.176Z,9.70
2022-11-23T11:31:52.390Z,9.80
2022-11-23T11:37:10.504Z,9.78
2022-11-23T11:42:21.840Z,9.76
2022-11-23T11:47:32.374Z,9.80
2022-11-23T11:52:39.396Z,9.81
2022-11-23T11:57:47.189Z,9.85
2022-11-23T12:02:57.249Z,9.83
2022-11-23T12:08:07.898Z,9.91
2022-11-23T12:13:17.008Z,10.00
2022-11-23T12:18:50.014Z,10.14
2022-11-23T12:24:02.853Z,10.11
2022-11-23T12:29:24.777Z,10.10
2022-11-23T12:34:55.525Z,10.09
2022-11-23T12:40:14.089Z,10.04
2022-11-23T12:45:37.037Z,10.19
2022-11-23T12:50:45.040Z,10.29
2022-11-23T12:55:55.202Z,10.31
2022-11-23T13:01:06.166Z,10.37
2022-11-23T13:06:37.658Z,10.32
2022-11-23T13:11:58.721Z,10.27
2022-11-23T13:17:26.680Z,10.10
2022-11-23T13:22:32.145Z,9.82
2022-11-23T13:27:46.424Z,9.51
2022-11-23T13:32:58.119Z,9.37
2022-11-23T13:38:38.982Z,9.31
2022-11-23T13:43:42.383Z,9.12
2022-11-23T13:49:03.129Z,8.97
2022-11-23T13:54:20.775Z,8.90
2022-11-23T13:59:31.328Z,8.85
2022-11-23T14:04:37.310Z,8.83
2022-11-23T14:09:47.271Z,8.77
2022-11-23T14:14:57.179Z,8.70
2022-11-23T14:20:34.484Z,8.60
2022-11-23T14:25:49.156Z,8.57
2022-11-23T14:31:06.054Z,8.51
2022-11-23T14:36:22.850Z,8.41
2022-11-23T14:41:29.699Z,8.37
2022-11-23T14:46:32.968Z,8.32
2022-11-23T14:51:43.288Z,8.23
2022-11-23T14:56:48.498Z,8.23
2022-11-23T15:01:54.577Z,8.22
2022-11-23T15:07:05.332Z,8.20
2022-11-23T15:12:10.153Z,8.16
2022-11-23T15:17:18.528Z,8.16
2022-11-23T15:22:24.643Z,8.12
2022-11-23T15:27:29.623Z,8.13
2022-11-23T15:32:35.121Z,8.11
2022-11-23T15:37:45.745Z,8.12
2022-11-23T15:42:51.220Z,8.10
2022-11-23T15:47:54.519Z,8.10
2022-11-23T15:53:00.821Z,8.10
2022-11-23T15:58:07.739Z,8.09
2022-11-23T16:03:31.802Z,8.11
2022-11-23T16:08:37.745Z,8.12
2022-11-23T16:13:41.165Z,8.09
2022-11-23T16:18:46.180Z,8.10
2022-11-23T16:23:54.452Z,8.09
2022-11-23T16:28:59.575Z,8.12
2022-11-23T16:34:02.592Z,8.13
2022-11-23T16:39:06.923Z,8.13
2022-11-23T16:44:09.973Z,8.18
2022-11-23T16:49:17.306Z,8.23
2022-11-23T16:54:24.863Z,8.26
2022-11-23T16:59:28.821Z,8.29
2022-11-23T17:04:32.267Z,8.22
2022-11-23T17:09:37.084Z,8.15
2022-11-23T17:14:40.908Z,8.04
2022-11-23T17:19:48.143Z,7.95
2022-11-23T17:24:54.552Z,7.84
2022-11-23T17:29:59.794Z,7.76
2022-11-23T17:35:02.794Z,7.70
2022-11-23T17:40:15.963Z,7.65
2022-11-23T17:45:19.013Z,7.61
2022-11-23T17:50:22.042Z,7.58
2022-11-23T17:55:27.652Z,7.54
2022-11-23T18:00:31.879Z,7.47
2022-11-23T18:05:38.020Z,7.41
2022-11-23T18:10:42.502Z,7.35
2022-11-23T18:15:45.651Z,7.31
2022-11-23T18:20:50.071Z,7.25
2022-11-23T18:26:01.277Z,7.19
2022-11-23T18:31:04.292Z,7.12
2022-11-23T18:36:07.974Z,7.09
2022-11-23T18:41:13.488Z,7.07
2022-11-23T18:46:19.491Z,7.01
2022-11-23T18:51:23.618Z,6.97
2022-11-23T18:56:28.072Z,6.92
2022-11-23T19:01:31.079Z,6.88
2022-11-23T19:06:34.472Z,6.82
2022-11-23T19:11:39.052Z,6.77
2022-11-23T19:16:42.315Z,6.75
2022-11-23T19:21:47.223Z,6.73
2022-11-23T19:26:51.858Z,6.71
2022-11-23T19:31:55.283Z,6.69
2022-11-23T19:36:58.315Z,6.66
2022-11-23T19:42:03.554Z,6.69
2022-11-23T19:47:13.667Z,6.71
2022-11-23T19:52:17.680Z,6.76
2022-11-23T19:57:22.637Z,6.83
2022-11-23T20:02:26.721Z,6.79
2022-11-23T20:07:32.054Z,6.78
2022-11-23T20:12:36.454Z,6.78
2022-11-23T20:17:39.423Z,6.84
2022-11-23T20:22:44.902Z,6.93
2022-11-23T20:27:49.297Z,6.97
2022-11-23T20:32:52.382Z,7.05
2022-11-23T20:37:55.400Z,7.08
2022-11-23T20:43:00.139Z,7.16
2022-11-23T20:48:03.371Z,7.10
2022-11-23T20:53:06.777Z,7.00
2022-11-23T20:58:11.421Z,6.95
2022-11-23T21:03:14.770Z,6.91
2022-11-23T21:08:30.276Z,6.88
2022-11-23T21:13:55.543Z,6.87
2022-11-23T21:18:58.545Z,6.84
2022-11-23T21:24:01.741Z,6.81
2022-11-23T21:29:09.719Z,6.81
2022-11-23T21:34:19.673Z,6.81
2022-11-23T21:39:23.889Z,6.79
2022-11-23T21:44:28.342Z,6.81
2022-11-23T21:49:31.873Z,6.81
2022-11-23T21:54:35.172Z,6.84
2022-11-23T21:59:40.056Z,6.92
2022-11-23T22:04:43.100Z,7.06
2022-11-23T22:09:46.345Z,7.08
2022-11-23T22:14:53.772Z,7.06
2022-11-23T22:19:56.951Z,7.10
2022-11-23T22:25:02.942Z,7.15
2022-11-23T22:30:09.682Z,7.20
2022-11-23T22:35:13.414Z,7.21
2022-11-23T22:40:19.931Z,7.16
2022-11-23T22:45:24.385Z,7.17
2022-11-23T22:50:27.917Z,7.15
2022-11-23T22:55:34.208Z,7.14
2022-11-23T23:00:38.801Z,7.16
2022-11-23T23:05:41.762Z,7.14
2022-11-23T23:10:44.935Z,7.18
2022-11-23T23:15:49.977Z,7.23
2022-11-23T23:20:52.986Z,7.36
2022-11-23T23:25:56.519Z,7.52
2022-11-23T23:31:03.206Z,7.56
2022-11-23T23:36:08.483Z,7.55
2022-11-23T23:41:12.693Z,7.53
2022-11-23T23:46:17.707Z,7.42
2022-11-23T23:51:22.823Z,7.38
2022-11-23T23:56:28.181Z,7.29
